createdAt,value
2023-07-25T00:20:00.381Z,18.99
2023-07-25T00:22:31.081Z,18.98
2023-07-25T00:25:17.131Z,19.02
2023-07-25T00:47:47.929Z,18.83
2023-07-25T00:50:19.222Z,18.78
2023-07-25T00:52:52.191Z,18.84
2023-07-25T00:55:42.007Z,18.86
2023-07-25T01:01:48.999Z,18.88
2023-07-25T01:22:11.911Z,18.75
2023-07-25T01:24:52.066Z,18.73
2023-07-25T01:27:20.782Z,18.72
2023-07-25T01:29:55.765Z,18.69
2023-07-25T01:32:24.450Z,18.69
2023-07-25T01:34:53.558Z,18.64
2023-07-25T01:37:28.951Z,18.59
2023-07-25T01:40:02.880Z,18.62
2023-07-25T01:45:19.730Z,18.57
2023-07-25T01:47:53.925Z,18.56
2023-07-25T01:50:22.518Z,18.54
2023-07-25T01:52:52.893Z,18.54
2023-07-25T01:55:34.953Z,18.55
2023-07-25T01:58:05.790Z,18.55
2023-07-25T02:00:49.033Z,18.58
2023-07-25T02:06:19.521Z,18.58
2023-07-25T02:15:27.730Z,18.46
2023-07-25T02:21:24.898Z,18.39
2023-07-25T02:26:43.489Z,18.30
2023-07-25T02:29:19.433Z,18.30
2023-07-25T02:31:58.026Z,18.31
2023-07-25T02:40:36.382Z,18.26
2023-07-25T02:43:06.100Z,18.24
2023-07-25T02:45:42.834Z,18.22
2023-07-25T02:51:13.534Z,18.20
2023-07-25T02:53:46.234Z,18.22
2023-07-25T02:56:27.686Z,18.26
2023-07-25T03:02:08.315Z,18.32
2023-07-25T03:07:37.181Z,18.40
2023-07-25T03:10:25.435Z,18.45
2023-07-25T03:12:54.544Z,18.43
2023-07-25T03:15:23.246Z,18.43
2023-07-25T03:18:10.469Z,18.44
2023-07-25T03:20:39.444Z,18.44
2023-07-25T03:23:11.593Z,18.41
2023-07-25T03:25:58.718Z,18.40
2023-07-25T03:31:42.536Z,18.41
2023-07-25T03:53:10.411Z,18.64
2023-07-25T03:55:46.183Z,18.67
2023-07-25T03:58:37.502Z,18.72
2023-07-25T04:01:07.261Z,18.73
2023-07-25T04:12:12.015Z,18.66
2023-07-25T04:14:44.253Z,18.62
2023-07-25T04:20:21.656Z,18.50
2023-07-25T04:22:50.250Z,18.44
2023-07-25T04:25:18.804Z,18.38
2023-07-25T04:27:48.607Z,18.37
2023-07-25T04:30:17.257Z,18.35
2023-07-25T04:32:45.834Z,18.33
2023-07-25T04:35:14.555Z,18.37
2023-07-25T04:37:43.338Z,18.39
2023-07-25T04:40:15.179Z,18.43
2023-07-25T04:42:44.213Z,18.44
2023-07-25T04:45:15.525Z,18.48
2023-07-25T04:47:47.507Z,18.50
2023-07-25T04:50:16.525Z,18.55
2023-07-25T04:52:46.357Z,18.52
2023-07-25T04:55:15.027Z,18.52
2023-07-25T04:57:43.998Z,18.51
2023-07-25T05:00:17.042Z,18.50
2023-07-25T05:02:45.607Z,18.45
2023-07-25T05:05:14.172Z,18.45
2023-07-25T05:07:43.362Z,18.47
2023-07-25T05:10:12.054Z,18.50
2023-07-25T05:12:41.683Z,18.53
2023-07-25T05:15:11.642Z,18.56
2023-07-25T05:17:42.400Z,18.62
2023-07-25T05:20:14.564Z,18.65
2023-07-25T05:22:44.460Z,18.71
2023-07-25T05:25:14.506Z,18.73
2023-07-25T05:27:45.001Z,18.75
2023-07-25T05:30:13.765Z,18.76
2023-07-25T05:32:45.326Z,18.78
2023-07-25T05:35:15.169Z,18.76
2023-07-25T05:37:44.084Z,18.80
2023-07-25T05:40:13.177Z,18.80
2023-07-25T05:42:42.863Z,18.86
2023-07-25T05:45:13.823Z,18.88
2023-07-25T05:47:52.255Z,19.00
2023-07-25T05:50:20.718Z,19.09
2023-07-25T05:52:49.497Z,19.15
2023-07-25T05:55:18.713Z,19.23
2023-07-25T05:57:47.282Z,19.38
2023-07-25T06:00:16.183Z,19.43
2023-07-25T06:02:47.987Z,19.60
2023-07-25T06:05:16.328Z,19.68
2023-07-25T06:07:45.054Z,19.78
2023-07-25T06:10:14.193Z,19.89
2023-07-25T06:12:43.859Z,19.96
2023-07-25T06:15:12.659Z,20.04
2023-07-25T06:17:41.507Z,20.11
2023-07-25T06:20:22.503Z,20.17
2023-07-25T06:22:53.331Z,20.22
2023-07-25T06:25:22.509Z,20.24
2023-07-25T06:38:00.221Z,20.07
2023-07-25T06:53:16.776Z,20.15
2023-07-25T06:56:06.277Z,20.18
2023-07-25T08:04:50.112Z,21.91
2023-07-25T08:07:22.544Z,21.89
2023-07-25T08:09:56.370Z,21.84
2023-07-25T08:12:26.268Z,21.91
2023-07-25T08:14:54.756Z,21.98
2023-07-25T08:17:40.188Z,21.97
2023-07-25T08:20:11.350Z,21.87
2023-07-25T08:22:40.010Z,21.83
2023-07-25T08:25:10.776Z,21.75
2023-07-25T08:27:39.080Z,21.75
2023-07-25T08:30:10.047Z,21.76
2023-07-25T08:32:40.323Z,21.69
2023-07-25T08:35:16.601Z,21.73
2023-07-25T08:37:45.016Z,21.82
2023-07-25T08:40:18.437Z,21.87
2023-07-25T08:42:52.789Z,21.99
2023-07-25T08:45:22.836Z,22.11
2023-07-25T08:47:54.936Z,22.28
2023-07-25T08:53:16.792Z,22.50
2023-07-25T08:55:54.784Z,22.49
2023-07-25T08:58:23.683Z,22.58
2023-07-25T09:03:49.237Z,22.36
2023-07-25T09:09:02.673Z,22.19
2023-07-25T09:15:04.636Z,21.85
2023-07-25T09:20:15.692Z,21.72
2023-07-25T09:22:49.750Z,21.64
2023-07-25T09:28:08.622Z,21.62
2023-07-25T09:31:07.659Z,21.63
2023-07-25T09:33:36.259Z,21.60
2023-07-25T09:36:09.027Z,21.63
2023-07-25T09:38:37.460Z,21.65
2023-07-25T09:41:10.989Z,21.71
2023-07-25T09:43:42.897Z,21.67
2023-07-25T09:46:12.933Z,21.70
2023-07-25T09:48:45.612Z,21.68
2023-07-25T09:51:16.427Z,21.72
2023-07-25T09:53:45.143Z,21.83
2023-07-25T09:56:14.161Z,21.87
2023-07-25T09:58:54.844Z,21.83
2023-07-25T10:01:30.878Z,21.88
2023-07-25T10:03:59.932Z,21.84
2023-07-25T10:06:31.138Z,21.86
2023-07-25T10:09:01.242Z,21.85
2023-07-25T10:11:31.207Z,21.89
2023-07-25T10:14:00.127Z,21.84
2023-07-25T10:16:31.448Z,21.85
2023-07-25T10:19:02.832Z,21.79
2023-07-25T10:21:49.242Z,21.89
2023-07-25T10:24:18.771Z,21.89
2023-07-25T10:26:58.688Z,22.00
2023-07-25T10:29:45.282Z,22.16
2023-07-25T10:32:16.601Z,22.10
2023-07-25T10:34:53.613Z,22.11
2023-07-25T10:37:30.293Z,22.06
2023-07-25T10:40:12.427Z,22.00
2023-07-25T10:43:00.069Z,21.99
2023-07-25T10:45:50.784Z,22.02
2023-07-25T10:48:56.863Z,21.99
2023-07-25T10:51:27.374Z,21.87
2023-07-25T10:54:31.123Z,21.85
2023-07-25T10:57:26.596Z,21.83
2023-07-25T11:13:42.282Z,21.93
2023-07-25T11:16:12.299Z,21.87
2023-07-25T11:18:51.965Z,21.85
2023-07-25T11:21:20.600Z,21.91
2023-07-25T11:23:51.182Z,22.03
2023-07-25T11:26:19.683Z,22.04
2023-07-25T11:28:49.401Z,22.05
2023-07-25T11:31:22.792Z,22.12
2023-07-25T11:36:27.102Z,22.29
2023-07-25T11:38:59.206Z,22.29
2023-07-25T11:41:28.111Z,22.36
2023-07-25T11:47:02.820Z,22.51
2023-07-25T11:49:55.838Z,22.51
2023-07-25T11:52:30.353Z,22.51
2023-07-25T11:55:00.460Z,22.49
2023-07-25T11:57:29.445Z,22.47
2023-07-25T12:00:01.616Z,22.47
2023-07-25T12:02:49.825Z,22.55
2023-07-25T12:05:28.582Z,22.67
2023-07-25T12:08:02.030Z,22.76
2023-07-25T12:10:34.097Z,22.85
2023-07-25T12:13:05.105Z,22.95
2023-07-25T12:15:51.381Z,23.03
2023-07-25T12:18:28.439Z,22.99
2023-07-25T12:24:22.598Z,22.72
2023-07-25T12:26:53.319Z,22.69
2023-07-25T12:29:23.972Z,22.73
2023-07-25T12:31:54.862Z,22.83
2023-07-25T12:34:25.311Z,22.93
2023-07-25T12:37:42.692Z,22.93
2023-07-25T12:40:12.540Z,22.95
2023-07-25T12:42:41.096Z,22.94
2023-07-25T12:45:11.445Z,23.05
2023-07-25T12:47:44.236Z,23.20
2023-07-25T12:53:21.753Z,23.30
2023-07-25T12:55:50.395Z,23.43
2023-07-25T12:58:24.179Z,23.50
2023-07-25T13:07:12.905Z,24.01
2023-07-25T13:12:27.577Z,24.27
2023-07-25T13:14:57.679Z,23.89
2023-07-25T13:17:26.934Z,24.01
2023-07-25T13:19:58.487Z,24.35
2023-07-25T13:22:53.212Z,24.80
2023-07-25T13:26:00.211Z,25.39
2023-07-25T13:28:28.808Z,25.90
2023-07-25T13:31:16.664Z,26.17
2023-07-25T13:34:51.181Z,26.38
2023-07-25T13:37:20.053Z,26.51
2023-07-25T13:39:52.683Z,26.78
2023-07-25T13:45:02.901Z,27.20
2023-07-25T13:50:55.343Z,27.32
2023-07-25T13:53:25.501Z,27.51
2023-07-25T13:56:44.109Z,27.53
2023-07-25T13:59:26.692Z,27.29
2023-07-25T14:01:55.297Z,27.36
2023-07-25T14:04:55.231Z,27.80
2023-07-25T14:07:25.308Z,28.24
2023-07-25T14:10:11.420Z,28.69
2023-07-25T14:15:25.722Z,28.54
2023-07-25T14:17:57.634Z,28.48
2023-07-25T14:20:26.539Z,28.63
2023-07-25T14:23:01.507Z,28.97
2023-07-25T14:25:44.839Z,29.29
2023-07-25T14:28:30.074Z,29.45
2023-07-25T14:37:57.303Z,29.79
2023-07-25T14:40:46.116Z,30.06
2023-07-25T14:43:14.762Z,30.24
2023-07-25T14:45:44.433Z,30.21
2023-07-25T14:48:13.368Z,30.65
2023-07-25T14:50:45.173Z,31.21
2023-07-25T14:53:31.628Z,31.84
2023-07-25T14:56:00.111Z,32.21
2023-07-25T14:58:48.245Z,32.14
2023-07-25T15:04:00.365Z,31.38
2023-07-25T15:07:03.338Z,31.48
2023-07-25T15:09:32.246Z,31.75
2023-07-25T15:12:03.330Z,32.13
2023-07-25T15:14:32.117Z,32.83
2023-07-25T15:17:06.356Z,33.42
2023-07-25T15:19:49.009Z,33.65
2023-07-25T15:22:25.442Z,33.63
2023-07-25T15:25:12.434Z,33.56
2023-07-25T15:27:42.825Z,33.32
2023-07-25T15:30:28.599Z,33.33
2023-07-25T15:36:03.661Z,32.89
2023-07-25T15:38:42.626Z,32.72
2023-07-25T15:41:10.920Z,32.73
2023-07-25T15:43:40.886Z,32.75
2023-07-25T15:46:10.011Z,32.55
2023-07-25T15:48:47.595Z,32.43
2023-07-25T15:51:21.293Z,32.43
2023-07-25T15:56:44.590Z,32.89
2023-07-25T15:59:15.316Z,32.87
2023-07-25T16:22:11.040Z,31.94
2023-07-25T16:42:25.292Z,30.65
2023-07-25T16:55:22.419Z,31.67
2023-07-25T16:58:45.812Z,31.47
2023-07-25T17:01:22.331Z,31.39
2023-07-25T17:16:10.575Z,30.77
2023-07-25T17:31:11.096Z,29.84
2023-07-25T17:39:06.866Z,30.23
2023-07-25T17:42:15.432Z,30.36
2023-07-25T17:50:30.776Z,30.24
2023-07-25T17:55:57.265Z,30.68
2023-07-25T17:58:25.902Z,31.18
2023-07-25T18:01:06.812Z,31.69
2023-07-25T18:09:48.633Z,31.39
2023-07-25T18:12:32.652Z,31.44
2023-07-25T18:15:00.902Z,31.61
2023-07-25T18:17:29.370Z,31.81
2023-07-25T18:19:59.463Z,32.04
2023-07-25T18:22:32.476Z,32.35
2023-07-25T18:25:00.833Z,32.46
2023-07-25T18:30:23.096Z,32.35
2023-07-25T18:32:52.660Z,32.41
2023-07-25T18:35:33.387Z,32.25
2023-07-25T18:38:04.145Z,32.07
2023-07-25T18:40:38.172Z,31.98
2023-07-25T18:43:10.982Z,31.74
2023-07-25T18:45:41.031Z,31.62
2023-07-25T18:48:15.591Z,31.47
2023-07-25T18:51:03.002Z,31.24
2023-07-25T18:53:32.616Z,31.00
2023-07-25T18:56:07.028Z,30.95
2023-07-25T19:02:16.349Z,30.87
2023-07-25T19:04:50.118Z,30.61
2023-07-25T19:07:19.768Z,30.57
2023-07-25T19:09:51.232Z,30.48
2023-07-25T19:12:32.800Z,30.60
2023-07-25T19:15:02.244Z,30.28
2023-07-25T19:17:35.150Z,29.74
2023-07-25T19:20:09.271Z,29.06
2023-07-25T19:22:57.486Z,28.41
2023-07-25T19:28:35.259Z,27.41
2023-07-25T19:31:45.500Z,26.92
2023-07-25T21:00:45.149Z,21.03
2023-07-25T21:06:06.825Z,20.98
2023-07-25T21:08:36.293Z,20.95
2023-07-25T21:11:06.204Z,20.91
2023-07-25T21:13:42.701Z,20.86
2023-07-25T21:16:35.291Z,20.83
2023-07-25T21:19:14.980Z,20.76
2023-07-25T21:25:03.179Z,20.66
2023-07-25T21:27:43.781Z,20.58
2023-07-25T21:30:46.857Z,20.46
2023-07-25T21:41:07.394Z,19.84
2023-07-25T21:47:09.590Z,19.48
2023-07-25T21:49:42.420Z,19.32
2023-07-25T21:52:13.651Z,19.15
2023-07-25T21:54:49.489Z,19.01
2023-07-25T21:57:40.326Z,18.88
2023-07-25T22:03:02.371Z,18.70
2023-07-25T22:05:31.402Z,18.63
2023-07-25T22:08:03.827Z,18.58
2023-07-25T22:10:38.101Z,18.57
2023-07-25T22:13:10.897Z,18.56
2023-07-25T22:15:43.471Z,18.48
2023-07-25T22:18:26.615Z,18.41
2023-07-25T22:20:55.203Z,18.30
2023-07-25T22:23:35.097Z,18.21
2023-07-25T22:26:06.662Z,18.13
2023-07-25T22:31:27.342Z,18.09
2023-07-25T22:37:28.808Z,18.07
2023-07-25T22:43:02.043Z,18.07
2023-07-25T22:45:37.016Z,18.08
2023-07-25T22:51:15.115Z,18.07
2023-07-25T22:53:47.192Z,18.05
2023-07-25T22:59:13.469Z,17.92
2023-07-25T23:01:42.705Z,17.88
2023-07-25T23:04:11.729Z,17.82
2023-07-25T23:06:44.074Z,17.82
2023-07-25T23:09:14.223Z,17.80
2023-07-25T23:11:43.173Z,17.73
2023-07-25T23:14:11.646Z,17.72
2023-07-25T23:16:40.378Z,17.66
2023-07-25T23:19:08.791Z,17.65
2023-07-25T23:21:38.014Z,17.60
2023-07-25T23:24:07.776Z,17.58
2023-07-25T23:26:38.212Z,17.55
2023-07-25T23:29:07.025Z,17.47
2023-07-25T23:31:35.652Z,17.40
2023-07-25T23:34:04.671Z,17.35
2023-07-25T23:36:34.285Z,17.26
2023-07-25T23:39:02.797Z,17.14
2023-07-25T23:41:31.963Z,17.08
2023-07-25T23:44:01.938Z,17.01
2023-07-25T23:46:30.619Z,16.94
2023-07-25T23:48:59.902Z,16.86
2023-07-25T23:51:28.333Z,16.79
2023-07-25T23:54:01.848Z,16.72
2023-07-25T23:56:31.896Z,16.68
2023-07-25T23:59:02.431Z,16.64
